Data for 08/01/2014

Time Sea-Level Adjusted Pressure Absolute Pressure Temperature Relative Humidity Dew Point   
(mb) (inHg) (mb) (inHg) (C) (F) (%) (C) (F)
00:05 1024 30.24 853 25.19 18 64.3 38 3.5 38.3
00:10 1024 30.24 853 25.19 18.7 65.6 37 3.7 38.6
00:15 1024 30.24 853 25.19 18.1 64.5 41 4.7 40.5
00:20 1024 30.24 853 25.19 17.5 63.5 43 4.9 40.9
00:25 1024 30.24 853 25.19 16.8 62.3 42 3.9 39
00:30 1024 30.24 853 25.19 17.6 63.7 38 3.3 37.9
00:35 1024 30.24 853 25.19 18.1 64.6 39 4.2 39.6
00:40 1024 30.24 853 25.19 17.7 63.9 41 4.5 40.1
00:45 1024 30.24 853 25.19 17.2 63 45 5.2 41.4
00:50 1024 30.24 853 25.19 16.5 61.7 48 5.4 41.8
00:55 1024 30.24 853 25.19 16.2 61.1 46 4.5 40.1
01:00 1024 30.24 853 25.19 15.9 60.6 46 4.5 40.1
01:05 1024 30.24 853 25.19 15.7 60.3 46 4.3 39.8
01:10 1024 30.24 853 25.19 15.6 60.2 45 3.7 38.7
01:15 1024 30.24 853 25.19 15.7 60.3 45 3.9 39
01:20 1024 30.24 853 25.19 15.8 60.4 51 5.6 42.1
01:25 1024 30.24 853 25.19 15.8 60.4 46 4.2 39.6
01:30 1024 30.24 853 25.19 15.4 59.8 47 4.2 39.5
01:35 1024 30.24 853 25.19 15.3 59.5 47 4.2 39.6
01:40 1024 30.24 853 25.19 15.1 59.2 49 4.5 40
01:45 1024 30.24 853 25.19 14.8 58.6 49 4.2 39.6
01:50 1024 30.24 853 25.19 15 59 46 3.7 38.7
01:55 1024 30.24 853 25.19 15.5 59.9 44 3.3 38
02:00 1024 30.24 853 25.19 15.8 60.5 44 3.8 38.8
02:05 1024 30.24 853 25.19 16 60.8 44 3.7 38.7
02:10 1024 30.24 853 25.19 16 60.7 42 3.3 37.9
02:15 1024 30.24 853 25.19 16 60.8 44 3.7 38.7
02:20 1024 30.24 853 25.19 15.7 60.3 44 3.5 38.4
02:25 1024 30.24 853 25.19 15.6 60.1 44 3.4 38.2
02:30 1024 30.24 853 25.19 16 60.9 41 2.8 37
02:35 1024 30.24 853 25.19 16.5 61.7 42 3.7 38.7
02:40 1024 30.24 853 25.19 16.4 61.5 42 3.6 38.4
02:45 1024 30.24 853 25.19 16.2 61.2 44 3.9 39
02:50 1024 30.24 853 25.19 15.8 60.4 46 4.2 39.5
02:55 1024 30.24 853 25.19 15.4 59.8 46 4 39.2
03:00 1024 30.24 853 25.19 15.4 59.6 48 4.6 40.3
03:05 1024 30.24 853 25.19 15.4 59.8 46 4.1 39.4
03:10 1024 30.24 853 25.19 15.2 59.4 47 4 39.2
03:15 1024 30.24 853 25.19 15.2 59.4 45 3.6 38.5
03:20 1024 30.24 853 25.19 15.2 59.4 45 3.6 38.5
03:25 1024 30.24 853 25.19 15.3 59.5 43 2.9 37.3
03:30 1024 30.24 853 25.19 15.7 60.2 44 3.5 38.3
03:35 1024 30.24 853 25.19 15.4 59.7 44 3.3 38
03:40 1024 30.24 853 25.19 15.5 60 44 3.4 38.1
03:45 1024 30.24 853 25.19 15.1 59.2 47 3.9 39.1
03:50 1024 30.24 853 25.19 15 59 47 3.9 39
03:55 1024 30.24 853 25.19 14.6 58.3 50 4.5 40.1
04:00 1024 30.24 853 25.19 14.5 58 50 4.3 39.7
04:05 1024 30.24 853 25.19 14.4 57.8 51 4.3 39.8
04:10 1024 30.24 853 25.19 14.3 57.7 51 4.3 39.7
04:15 1024 30.24 853 25.19 14.1 57.3 51 4.1 39.4
04:20 1024 30.24 853 25.19 14 57.2 50 3.8 38.9
04:25 1024 30.24 853 25.19 14.4 57.9 49 3.8 38.9
04:30 1024 30.24 853 25.19 14.8 58.7 47 3.8 38.8
04:35 1024 30.24 853 25.19 15.5 59.9 44 3.3 37.9
04:40 1024 30.24 853 25.19 16 60.8 44 3.8 38.8
04:45 1024 30.24 853 25.19 15.8 60.5 45 3.9 39
04:50 1024 30.24 853 25.19 16 60.8 45 4.1 39.4
04:55 1024 30.24 853 25.19 15.9 60.6 43 3.6 38.5
05:00 1024 30.24 854 25.22 15.7 60.2 44 3.6 38.5
05:05 1024 30.24 854 25.22 15.6 60.1 44 3.5 38.3
05:10 1024 30.24 854 25.22 15.6 60 44 3.5 38.3
05:15 1024 30.24 854 25.22 15.1 59.2 46 3.6 38.4
05:20 1024 30.24 854 25.22 15.4 59.7 44 3.3 37.9
05:25 1024 30.24 854 25.22 15.6 60 44 3.4 38.1
05:30 1024 30.24 854 25.22 15.1 59.1 49 4.6 40.2
05:35 1024 30.24 854 25.22 14.3 57.7 48 3.4 38.2
05:40 1024 30.24 854 25.22 14.7 58.4 46 3.2 37.8
05:45 1024 30.24 854 25.22 15.2 59.4 46 3.7 38.6
05:50 1024 30.24 854 25.22 15 59 48 4 39.3
05:55 1025 30.27 854 25.22 14.7 58.5 49 4.1 39.4
06:00 1025 30.27 854 25.22 15 59.1 48 4.2 39.6
06:05 1025 30.27 854 25.22 15 58.9 49 4.4 39.9
06:10 1025 30.27 854 25.22 15 58.9 48 4.1 39.3
06:15 1025 30.27 854 25.22 14.9 58.8 49 4.3 39.7
06:20 1025 30.27 854 25.22 14.8 58.7 49 4.3 39.7
06:25 1025 30.27 854 25.22 15 59 48 4.1 39.4
06:30 1025 30.27 854 25.22 15.5 59.9 47 4.2 39.6
06:35 1025 30.27 854 25.22 15.9 60.7 45 4.2 39.6
06:40 1025 30.27 854 25.22 16.4 61.4 46 4.8 40.6
06:45 1025 30.27 854 25.22 16.5 61.7 50 6.2 43.2
06:50 1025 30.27 854 25.22 17 62.6 46 5.3 41.5
06:55 1025 30.27 854 25.22 17.5 63.4 46 5.7 42.2
07:00 1025 30.27 854 25.22 17.9 64.1 44 5.5 42
07:05 1025 30.27 854 25.22 17.8 64.1 45 6 42.8
07:10 1025 30.27 854 25.22 18 64.5 43 5.6 42
07:15 1025 30.27 854 25.22 18 64.5 44 5.7 42.3
07:20 1025 30.27 854 25.22 18.6 65.4 45 6.7 44
07:25 1025 30.27 854 25.22 18.3 65 48 7.3 45.1
07:30 1025 30.27 854 25.22 18.7 65.6 43 6 42.8
07:35 1025 30.27 854 25.22 19.3 66.7 43 6.6 43.9
07:40 1025 30.27 854 25.22 20.3 68.5 39 6.1 43
07:45 1025 30.27 854 25.22 20.6 69.1 39 6.4 43.6
07:50 1025 30.27 854 25.22 20.9 69.7 36 5.7 42.2
07:55 1025 30.27 854 25.22 21.2 70.1 36 5.5 42
08:00 1025 30.27 854 25.22 21.4 70.6 36 6 42.9
08:05 1025 30.27 854 25.22 20.9 69.7 36 5.7 42.2
08:10 1025 30.27 854 25.22 20.7 69.2 37 5.6 42
08:15 1025 30.27 854 25.22 20.8 69.4 36 5.5 41.9
08:20 1025 30.27 854 25.22 20.5 68.9 36 5.1 41.1
08:25 1025 30.27 854 25.22 21 69.8 33 4.4 39.9
08:30 1025 30.27 854 25.22 21.6 70.9 32 4.5 40.2
08:35 1025 30.27 854 25.22 21.6 70.8 32 4.5 40.1
08:40 1025 30.27 854 25.22 21.7 71 31 4.2 39.5
08:45 1025 30.27 854 25.22 21.8 71.2 32 4.6 40.4
08:50 1025 30.27 854 25.22 22.4 72.2 30 4.1 39.5
08:55 1025 30.27 854 25.22 22.7 72.8 31 4.8 40.6
09:00 1025 30.27 854 25.22 23.1 73.6 30 5 40.9
09:05 1025 30.27 854 25.22 22.7 72.8 31 4.8 40.7
09:10 1025 30.27 854 25.22 23.4 74.1 30 5 41.1
09:15 1025 30.27 854 25.22 23.7 74.6 28 4.4 39.9
09:20 1025 30.27 854 25.22 23.8 74.8 28 4.4 39.9
09:25 1025 30.27 854 25.22 23.1 73.5 29 4.4 40
09:30 1025 30.27 854 25.22 23.1 73.6 28 4.1 39.3
09:35 1025 30.27 854 25.22 23.5 74.3 28 4 39.2
09:40 1025 30.27 854 25.22 23.6 74.5 29 4.7 40.4
09:45 1025 30.27 854 25.22 23.7 74.7 29 4.8 40.6
09:50 1025 30.27 854 25.22 24 75.2 28 4.6 40.2
09:55 1025 30.27 854 25.22 24.6 76.2 28 5.2 41.4
10:00 1025 30.27 854 25.22 25.5 77.8 27 5.3 41.5
10:05 1025 30.27 854 25.22 25.8 78.4 26 5 41.1
10:10 1025 30.27 854 25.22 25.1 77.1 28 5.3 41.5
10:15 1025 30.27 854 25.22 25.9 78.6 24 4.3 39.8
10:20 1025 30.27 854 25.22 26.5 79.6 23 4.1 39.3
10:25 1025 30.27 854 25.22 26.2 79.1 25 5.1 41.2
10:30 1025 30.27 854 25.22 25.9 78.5 26 5.2 41.3
10:35 1025 30.27 854 25.22 26.2 79.1 24 4.3 39.8
10:40 1025 30.27 854 25.22 26.7 80.1 23 4.2 39.6
10:45 1025 30.27 854 25.22 27 80.6 23 4.6 40.3
10:50 1025 30.27 854 25.22 26.9 80.4 25 5.4 41.8
10:55 1025 30.27 854 25.22 26.4 79.6 28 6.9 44.4
11:00 1025 30.27 854 25.22 26 78.8 28 6.2 43.2
11:05 1025 30.27 854 25.22 26.4 79.5 27 6.1 42.9
11:10 1025 30.27 854 25.22 26.1 78.9 26 5.3 41.6
11:15 1025 30.27 854 25.22 26.2 79.1 25 4.6 40.3
11:20 1025 30.27 854 25.22 26 78.8 25 5 40.9
11:25 1025 30.27 854 25.22 26 78.9 26 5.5 41.9
11:30 1025 30.27 854 25.22 26.5 79.8 25 5.1 41.2
11:35 1024 30.24 854 25.22 27.3 81.1 23 4.7 40.4
11:40 1024 30.24 854 25.22 27.7 81.9 22 4.4 39.9
11:45 1024 30.24 853 25.19 26.9 80.5 24 4.8 40.6
11:50 1024 30.24 853 25.19 28 82.4 21 3.8 38.9
11:55 1024 30.24 853 25.19 27.9 82.2 22 4.5 40.1
12:00 1024 30.24 853 25.19 27.6 81.6 22 4.5 40.2
12:05 1024 30.24 853 25.19 27.9 82.1 22 4.7 40.4
12:10 1024 30.24 853 25.19 28.9 84.1 21 4.9 40.8
12:15 1024 30.24 853 25.19 29.1 84.3 22 5.4 41.6
12:20 1024 30.24 853 25.19 29.5 85.1 20 4.8 40.6
12:25 1024 30.24 853 25.19 29.8 85.6 20 5 40.9
12:30 1024 30.24 853 25.19 29.6 85.3 22 5.8 42.4
12:35 1024 30.24 853 25.19 29.3 84.8 21 4.9 40.8
12:40 1024 30.24 853 25.19 29 84.2 21 4.5 40.1
12:45 1023 30.21 853 25.19 28.8 83.8 21 4.3 39.7
12:50 1023 30.21 853 25.19 29.2 84.5 20 4.4 39.9
12:55 1023 30.21 853 25.19 28.6 83.4 21 4.5 40.1
13:00 1023 30.21 853 25.19 29.2 84.5 19 3.4 38.1
13:05 1023 30.21 853 25.19 28.9 84.1 19 3.3 37.9
13:10 1023 30.21 852 25.16 29.9 85.8 18 3.5 38.3
13:15 1023 30.21 852 25.16 30.5 86.8 19 4.3 39.7
13:20 1023 30.21 852 25.16 29.6 85.2 19 3.8 38.8
13:25 1023 30.21 852 25.16 30.1 86.1 18 3.4 38.1
13:30 1023 30.21 852 25.16 30.4 86.6 17 3.2 37.7
13:35 1023 30.21 852 25.16 30.4 86.7 16 2.2 35.9
13:40 1023 30.21 852 25.16 29.8 85.6 17 2.1 35.8
13:45 1023 30.21 852 25.16 30.7 87.2 15 1.5 34.7
13:50 1023 30.21 852 25.16 31.2 88.1 14 1 33.7
13:55 1023 30.21 852 25.16 31.8 89.2 14 1.4 34.5
14:00 1023 30.21 852 25.16 32.1 89.8 14 1.7 35
14:05 1023 30.21 852 25.16 31.7 89.1 15 1.9 35.4
14:10 1023 30.21 852 25.16 30.5 86.9 15 1.6 34.8
14:15 1023 30.21 852 25.16 30.6 87.1 15 1 33.8
14:20 1023 30.21 852 25.16 31.3 88.4 14 1.3 34.3
14:25 1023 30.21 852 25.16 30.5 86.9 15 0.9 33.7
14:30 1023 30.21 852 25.16 29.3 84.7 15 0 32.1
14:35 1022 30.18 852 25.16 29.1 84.4 15 -0 32
14:40 1022 30.18 852 25.16 29 84.2 15 -0.1 31.9
14:45 1022 30.18 852 25.16 29.1 84.4 14 -0.4 31.4
14:50 1022 30.18 852 25.16 28.8 83.9 15 -0.3 31.5
14:55 1022 30.18 852 25.16 28.9 84.1 17 1.5 34.7
15:00 1023 30.21 852 25.16 28.8 83.8 16 0.7 33.3
15:05 1023 30.21 852 25.16 28.7 83.7 16 0.7 33.2
15:10 1022 30.18 852 25.16 28.7 83.7 17 1.3 34.3
15:15 1022 30.18 852 25.16 28.6 83.5 16 0.9 33.7
15:20 1023 30.21 852 25.16 28.4 83.1 17 1.6 35
15:25 1023 30.21 852 25.16 28.2 82.7 16 0.6 33.1
15:30 1023 30.21 852 25.16 28.1 82.6 17 1 33.7
15:35 1023 30.21 852 25.16 28.8 83.8 16 0.4 32.8
15:40 1023 30.21 852 25.16 29 84.2 19 3.2 37.8
15:45 1023 30.21 852 25.16 28.6 83.5 19 3.4 38.1
15:50 1023 30.21 852 25.16 28.5 83.3 15 -0.2 31.6
15:55 1023 30.21 852 25.16 28.8 83.8 16 0.4 32.7
16:00 1023 30.21 852 25.16 29.4 84.9 19 4 39.1
16:05 1023 30.21 852 25.16 30 86 17 2.3 36.2
16:10 1022 30.18 852 25.16 29.2 84.5 17 1.7 35
16:15 1023 30.21 852 25.16 29.6 85.2 14 -0.2 31.7
16:20 1023 30.21 852 25.16 29.5 85.1 18 3.2 37.7
16:25 1023 30.21 852 25.16 29.6 85.2 14 -0.2 31.7
16:30 1022 30.18 852 25.16 28.4 83.1 15 0 32
16:35 1022 30.18 852 25.16 28 82.4 16 -0.2 31.6
16:40 1022 30.18 852 25.16 28.1 82.5 15 -0.9 30.3
16:45 1022 30.18 852 25.16 28.3 82.9 15 -0.4 31.3
16:50 1022 30.18 852 25.16 28.6 83.5 15 -0.7 30.8
16:55 1022 30.18 851 25.13 28.8 83.9 14 -1.2 29.8
17:00 1022 30.18 851 25.13 28.6 83.5 14 -1.3 29.6
17:05 1022 30.18 851 25.13 28.7 83.6 14 -0.8 30.6
17:10 1022 30.18 851 25.13 28.8 83.8 13 -1.6 29.2
17:15 1022 30.18 851 25.13 28.7 83.6 14 -0.7 30.8
17:20 1022 30.18 851 25.13 28.4 83 16 0.8 33.4
17:25 1022 30.18 851 25.13 28 82.4 18 1.9 35.4
17:30 1022 30.18 851 25.13 27.6 81.6 16 -0 32
17:35 1022 30.18 851 25.13 27.1 80.8 19 1.8 35.3
17:40 1022 30.18 851 25.13 26.8 80.2 20 2 35.6
17:45 1022 30.18 851 25.13 26.5 79.7 20 1.8 35.3
17:50 1022 30.18 851 25.13 26.4 79.6 20 1.9 35.4
17:55 1022 30.18 851 25.13 26.2 79.1 20 1.8 35.3
18:00 1022 30.18 851 25.13 26 78.8 21 2 35.5
18:05 1022 30.18 851 25.13 26.1 79 21 2.3 36.1
18:10 1022 30.18 851 25.13 26 78.8 21 2.3 36.2
18:15 1022 30.18 851 25.13 26 78.8 22 2.9 37.1
18:20 1022 30.18 851 25.13 26 78.8 21 2.5 36.4
18:25 1022 30.18 852 25.16 26.1 79 22 2.9 37.2
18:30 1022 30.18 852 25.16 26.1 78.9 23 3.8 38.8
18:35 1022 30.18 852 25.16 25.8 78.4 24 3.9 39
18:40 1022 30.18 852 25.16 25.5 78 25 4.1 39.4
18:45 1023 30.21 852 25.16 25.1 77.2 26 4.3 39.8
18:50 1023 30.21 852 25.16 24.9 76.8 25 3.9 39
18:55 1023 30.21 852 25.16 24.7 76.4 25 3.8 38.8
19:00 1023 30.21 852 25.16 24.5 76 26 3.8 38.8
19:05 1023 30.21 852 25.16 24.3 75.8 26 3.7 38.7
19:10 1023 30.21 852 25.16 24.2 75.5 26 3.7 38.7
19:15 1023 30.21 852 25.16 24 75.3 26 3.8 38.9
19:20 1023 30.21 852 25.16 23.9 75 26 3.5 38.3
19:25 1023 30.21 853 25.19 23.8 74.8 27 3.7 38.7
19:30 1023 30.21 853 25.19 23.6 74.5 28 4.5 40.2
19:35 1023 30.21 853 25.19 23.5 74.3 29 4.5 40.1
19:40 1024 30.24 853 25.19 23.3 73.9 29 4.5 40
19:45 1024 30.24 853 25.19 23.1 73.6 29 4.4 39.9
19:50 1024 30.24 853 25.19 23.1 73.5 28 4 39.3
19:55 1024 30.24 853 25.19 23 73.4 29 4.1 39.4
20:00 1023 30.21 853 25.19 23 73.3 29 4.3 39.8
20:05 1024 30.24 853 25.19 23 73.3 27 3.1 37.6
20:10 1024 30.24 853 25.19 23.2 73.7 26 2.9 37.3
20:15 1024 30.24 853 25.19 23.3 74 27 3.5 38.3
20:20 1024 30.24 853 25.19 23.2 73.7 27 3.4 38.2
20:25 1024 30.24 853 25.19 22.9 73.2 29 4 39.1
20:30 1024 30.24 853 25.19 22.7 72.8 30 4.6 40.2
20:35 1024 30.24 853 25.19 22.3 72.2 31 4.5 40.1
20:40 1024 30.24 853 25.19 22 71.6 30 3.7 38.7
20:45 1024 30.24 853 25.19 21.9 71.3 31 4.3 39.8
20:50 1024 30.24 853 25.19 21.6 70.8 32 4.6 40.2
20:55 1024 30.24 853 25.19 21.7 71 33 4.9 40.8
21:00 1024 30.24 853 25.19 21.6 70.8 35 5.5 41.9
21:05 1024 30.24 853 25.19 21.5 70.7 35 5.7 42.2
21:10 1024 30.24 853 25.19 21.5 70.7 35 5.5 41.9
21:15 1024 30.24 853 25.19 21.2 70.2 34 5 41
21:20 1024 30.24 853 25.19 20.8 69.5 38 6.1 43
21:25 1024 30.24 853 25.19 20.8 69.4 32 3.9 38.9
21:30 1024 30.24 854 25.22 20.8 69.5 34 4.7 40.5
21:35 1024 30.24 854 25.22 20.2 68.4 36 4.8 40.7
21:40 1024 30.24 854 25.22 19.8 67.6 36 4.6 40.3
21:45 1024 30.24 854 25.22 19.4 66.9 38 4.7 40.5
21:50 1024 30.24 854 25.22 19.3 66.7 37 4.5 40.1
21:55 1024 30.24 854 25.22 19.3 66.7 37 4.4 39.9
22:00 1024 30.24 854 25.22 19.2 66.6 37 4.1 39.5
22:05 1024 30.24 854 25.22 19.4 66.9 36 4.1 39.4
22:10 1024 30.24 853 25.19 19.3 66.7 37 4.4 39.9
22:15 1024 30.24 853 25.19 19.1 66.4 37 4.2 39.6
22:20 1024 30.24 853 25.19 18.8 65.9 38 4.5 40
22:25 1024 30.24 853 25.19 18.3 64.9 41 5 41
22:30 1024 30.24 854 25.22 17.7 63.9 43 5.1 41.2
22:35 1024 30.24 853 25.19 17.5 63.5 42 4.4 40
22:40 1024 30.24 853 25.19 17.5 63.5 41 4.4 39.9
22:45 1024 30.24 853 25.19 17.5 63.6 41 4.3 39.7
22:50 1024 30.24 853 25.19 17.8 64 41 4.5 40.1
22:55 1024 30.24 853 25.19 17.8 64 40 4.1 39.5
23:00 1024 30.24 853 25.19 18 64.3 40 4.3 39.7
23:05 1024 30.24 853 25.19 18 64.4 40 4.3 39.7
23:10 1024 30.24 853 25.19 18.3 64.9 39 4.1 39.4
23:15 1024 30.24 853 25.19 18.3 65 40 4.7 40.4
23:20 1024 30.24 853 25.19 17.8 64 42 4.7 40.5
23:25 1024 30.24 853 25.19 17.4 63.3 43 4.8 40.7
23:30 1024 30.24 853 25.19 17.3 63.1 43 4.7 40.4
23:35 1024 30.24 853 25.19 17.3 63.1 42 4.4 39.9
23:40 1024 30.24 853 25.19 17.2 63 43 4.7 40.5
23:45 1024 30.24 853 25.19 17 62.5 43 4.5 40.1
23:50 1024 30.24 853 25.19 17 62.5 43 4.3 39.8
23:55 1024 30.24 853 25.19 17.2 62.9 43 4.5 40.1
24:00 1024 30.24 853 25.19 17.4 63.3 43 4.8 40.7